Chadwell St Mary, United Kingdom
Current Conditions -  °F | °C
As of 5:20 AM on Monday 22 Dec 2014 (Local Time) from EGLC Reporting Station
Drizzle Drizzle  
Wind Chill: 55°   Ceiling: 1600
Heat Index: 55°   Visibility: 3mi
Dew Point: 52°   Wind: 18mph
Humidity: 88%   Direction: 250°WSW
Pressure: 30.06"   Gusts: NA
Location:  51.48°N, 0.36°E
Report Text: EGLC 220520Z AUTO 25016KT 5000 -DZ SCT010/// BKN016/// BKN022/// 13/11 Q1018
Loading
Personal Weather Stations






























Interactive Weather Map New forecast layout! Learn more

10-Day Weather Forecast

Advertisements
Track Severe Weather on mobile